sensor_id;sensor_type;location;lat;lon;timestamp;temperature;humidity
68251;DHT22;55066;51.560;4.642;2023-09-19T00:02:18;15.18;99.99
68251;DHT22;55066;51.560;4.642;2023-09-19T00:04:43;15.09;99.99
68251;DHT22;55066;51.560;4.642;2023-09-19T00:07:09;15.11;99.99
68251;DHT22;55066;51.560;4.642;2023-09-19T00:09:35;15.02;99.99
68251;DHT22;55066;51.560;4.642;2023-09-19T00:12:05;14.99;99.99
68251;DHT22;55066;51.560;4.642;2023-09-19T00:14:31;14.89;99.99
68251;DHT22;55066;51.560;4.642;2023-09-19T00:17:00;14.89;99.99
68251;DHT22;55066;51.560;4.642;2023-09-19T00:19:26;14.76;99.99
68251;DHT22;55066;51.560;4.642;2023-09-19T00:21:51;14.78;99.99
68251;DHT22;55066;51.560;4.642;2023-09-19T00:24:18;14.71;99.99
68251;DHT22;55066;51.560;4.642;2023-09-19T00:26:44;14.76;99.99
68251;DHT22;55066;51.560;4.642;2023-09-19T00:29:11;14.84;99.99
68251;DHT22;55066;51.560;4.642;2023-09-19T00:31:43;14.78;99.99
68251;DHT22;55066;51.560;4.642;2023-09-19T00:34:09;14.77;99.99
68251;DHT22;55066;51.560;4.642;2023-09-19T00:36:37;14.81;99.79
68251;DHT22;55066;51.560;4.642;2023-09-19T00:39:05;14.61;99.99
68251;DHT22;55066;51.560;4.642;2023-09-19T00:41:34;14.55;99.99
68251;DHT22;55066;51.560;4.642;2023-09-19T00:44:03;14.59;99.80
68251;DHT22;55066;51.560;4.642;2023-09-19T00:46:32;14.57;99.42
68251;DHT22;55066;51.560;4.642;2023-09-19T00:48:58;14.67;98.87
68251;DHT22;55066;51.560;4.642;2023-09-19T00:51:25;14.57;98.79
68251;DHT22;55066;51.560;4.642;2023-09-19T00:53:53;14.64;98.58
68251;DHT22;55066;51.560;4.642;2023-09-19T00:56:19;14.47;98.99
68251;DHT22;55066;51.560;4.642;2023-09-19T00:58:46;14.41;99.02
68251;DHT22;55066;51.560;4.642;2023-09-19T01:01:12;14.41;98.71
68251;DHT22;55066;51.560;4.642;2023-09-19T01:03:40;14.34;99.44
68251;DHT22;55066;51.560;4.642;2023-09-19T01:06:06;14.40;98.61
68251;DHT22;55066;51.560;4.642;2023-09-19T01:08:33;14.30;98.74
68251;DHT22;55066;51.560;4.642;2023-09-19T01:11:29;14.36;99.09
68251;DHT22;55066;51.560;4.642;2023-09-19T01:16:38;14.29;98.22
68251;DHT22;55066;51.560;4.642;2023-09-19T01:22:23;14.32;98.19
68251;DHT22;55066;51.560;4.642;2023-09-19T01:30:22;14.19;98.23
68251;DHT22;55066;51.560;4.642;2023-09-19T01:32:53;14.19;97.83
68251;DHT22;55066;51.560;4.642;2023-09-19T01:35:19;14.18;97.85
68251;DHT22;55066;51.560;4.642;2023-09-19T01:37:45;14.08;98.20
68251;DHT22;55066;51.560;4.642;2023-09-19T01:40:17;14.15;97.92
68251;DHT22;55066;51.560;4.642;2023-09-19T01:46:09;14.13;97.25
68251;DHT22;55066;51.560;4.642;2023-09-19T01:48:42;14.12;97.73
68251;DHT22;55066;51.560;4.642;2023-09-19T01:51:14;13.91;97.61
68251;DHT22;55066;51.560;4.642;2023-09-19T01:53:50;13.86;98.87
68251;DHT22;55066;51.560;4.642;2023-09-19T01:56:29;13.95;99.28
68251;DHT22;55066;51.560;4.642;2023-09-19T01:59:08;13.85;98.98
68251;DHT22;55066;51.560;4.642;2023-09-19T02:01:36;13.71;99.01
68251;DHT22;55066;51.560;4.642;2023-09-19T02:04:03;13.74;99.03
68251;DHT22;55066;51.560;4.642;2023-09-19T02:06:31;13.70;98.77
68251;DHT22;55066;51.560;4.642;2023-09-19T02:08:56;13.78;98.28
68251;DHT22;55066;51.560;4.642;2023-09-19T02:11:22;13.81;98.03
68251;DHT22;55066;51.560;4.642;2023-09-19T02:13:48;13.77;98.13
68251;DHT22;55066;51.560;4.642;2023-09-19T02:16:18;13.70;98.33
68251;DHT22;55066;51.560;4.642;2023-09-19T02:18:48;13.77;98.13
68251;DHT22;55066;51.560;4.642;2023-09-19T02:21:15;13.75;97.55
68251;DHT22;55066;51.560;4.642;2023-09-19T02:23:40;13.73;98.10
68251;DHT22;55066;51.560;4.642;2023-09-19T02:26:06;13.71;98.15
68251;DHT22;55066;51.560;4.642;2023-09-19T02:28:32;13.73;97.76
68251;DHT22;55066;51.560;4.642;2023-09-19T02:30:59;13.65;97.67
68251;DHT22;55066;51.560;4.642;2023-09-19T02:33:25;13.58;98.50
68251;DHT22;55066;51.560;4.642;2023-09-19T02:35:56;13.53;98.62
68251;DHT22;55066;51.560;4.642;2023-09-19T02:38:27;13.53;98.66
68251;DHT22;55066;51.560;4.642;2023-09-19T02:40:54;13.42;98.71
68251;DHT22;55066;51.560;4.642;2023-09-19T02:43:21;13.40;99.19
68251;DHT22;55066;51.560;4.642;2023-09-19T02:45:47;13.37;98.91
68251;DHT22;55066;51.560;4.642;2023-09-19T02:48:16;13.29;99.15
68251;DHT22;55066;51.560;4.642;2023-09-19T02:50:42;13.24;99.17
68251;DHT22;55066;51.560;4.642;2023-09-19T02:53:07;13.26;99.78
68251;DHT22;55066;51.560;4.642;2023-09-19T02:55:33;13.27;99.41
68251;DHT22;55066;51.560;4.642;2023-09-19T02:57:59;13.24;99.47
68251;DHT22;55066;51.560;4.642;2023-09-19T03:00:26;13.30;99.12
68251;DHT22;55066;51.560;4.642;2023-09-19T03:02:54;13.30;99.34
68251;DHT22;55066;51.560;4.642;2023-09-19T03:05:21;13.23;99.33
68251;DHT22;55066;51.560;4.642;2023-09-19T03:07:47;13.18;99.66
68251;DHT22;55066;51.560;4.642;2023-09-19T03:10:17;13.27;98.98
68251;DHT22;55066;51.560;4.642;2023-09-19T03:12:43;13.20;99.44
68251;DHT22;55066;51.560;4.642;2023-09-19T03:15:09;13.22;99.58
68251;DHT22;55066;51.560;4.642;2023-09-19T03:17:35;13.23;99.62
68251;DHT22;55066;51.560;4.642;2023-09-19T03:20:02;13.26;99.44
68251;DHT22;55066;51.560;4.642;2023-09-19T03:22:29;13.27;99.95
68251;DHT22;55066;51.560;4.642;2023-09-19T03:24:55;13.33;99.67
68251;DHT22;55066;51.560;4.642;2023-09-19T03:27:22;13.32;99.83
68251;DHT22;55066;51.560;4.642;2023-09-19T03:29:48;13.27;99.99
68251;DHT22;55066;51.560;4.642;2023-09-19T03:32:14;13.30;99.99
68251;DHT22;55066;51.560;4.642;2023-09-19T03:34:40;13.33;99.99
68251;DHT22;55066;51.560;4.642;2023-09-19T03:37:07;13.42;99.99
68251;DHT22;55066;51.560;4.642;2023-09-19T03:39:34;13.44;99.99
68251;DHT22;55066;51.560;4.642;2023-09-19T03:42:01;13.47;99.99
68251;DHT22;55066;51.560;4.642;2023-09-19T03:44:26;13.40;99.99
68251;DHT22;55066;51.560;4.642;2023-09-19T03:46:52;13.48;99.99
68251;DHT22;55066;51.560;4.642;2023-09-19T03:49:17;13.53;99.99
68251;DHT22;55066;51.560;4.642;2023-09-19T03:51:44;13.54;99.99
68251;DHT22;55066;51.560;4.642;2023-09-19T03:54:10;13.58;99.99
68251;DHT22;55066;51.560;4.642;2023-09-19T03:56:35;13.67;99.99
68251;DHT22;55066;51.560;4.642;2023-09-19T03:59:01;13.70;99.99
68251;DHT22;55066;51.560;4.642;2023-09-19T04:01:26;13.68;99.99
68251;DHT22;55066;51.560;4.642;2023-09-19T04:03:53;13.65;99.99
68251;DHT22;55066;51.560;4.642;2023-09-19T04:06:19;13.67;99.99
68251;DHT22;55066;51.560;4.642;2023-09-19T04:08:44;13.74;99.99
68251;DHT22;55066;51.560;4.642;2023-09-19T04:11:12;13.79;99.99
68251;DHT22;55066;51.560;4.642;2023-09-19T04:13:38;13.75;99.99
68251;DHT22;55066;51.560;4.642;2023-09-19T04:16:04;13.65;99.99
68251;DHT22;55066;51.560;4.642;2023-09-19T04:18:29;13.78;99.99
68251;DHT22;55066;51.560;4.642;2023-09-19T04:20:59;13.91;99.99
68251;DHT22;55066;51.560;4.642;2023-09-19T04:23:28;13.98;99.99
68251;DHT22;55066;51.560;4.642;2023-09-19T04:25:53;13.91;99.99
68251;DHT22;55066;51.560;4.642;2023-09-19T04:28:19;13.86;99.99
68251;DHT22;55066;51.560;4.642;2023-09-19T04:30:44;13.82;99.99
68251;DHT22;55066;51.560;4.642;2023-09-19T04:33:10;13.88;99.99
68251;DHT22;55066;51.560;4.642;2023-09-19T04:35:36;13.85;99.99
68251;DHT22;55066;51.560;4.642;2023-09-19T04:38:04;13.85;99.99
68251;DHT22;55066;51.560;4.642;2023-09-19T04:40:32;13.78;99.99
68251;DHT22;55066;51.560;4.642;2023-09-19T04:42:58;13.77;99.99
68251;DHT22;55066;51.560;4.642;2023-09-19T04:45:24;13.82;99.99
68251;DHT22;55066;51.560;4.642;2023-09-19T04:47:50;13.81;99.99
68251;DHT22;55066;51.560;4.642;2023-09-19T04:50:15;13.91;99.99
68251;DHT22;55066;51.560;4.642;2023-09-19T04:52:43;13.98;99.99
68251;DHT22;55066;51.560;4.642;2023-09-19T04:55:13;13.92;99.99
68251;DHT22;55066;51.560;4.642;2023-09-19T04:57:49;13.98;99.99
68251;DHT22;55066;51.560;4.642;2023-09-19T05:00:22;13.95;99.99
68251;DHT22;55066;51.560;4.642;2023-09-19T05:02:55;13.86;99.99
68251;DHT22;55066;51.560;4.642;2023-09-19T05:05:24;13.73;99.99
68251;DHT22;55066;51.560;4.642;2023-09-19T05:07:51;13.75;99.99
68251;DHT22;55066;51.560;4.642;2023-09-19T05:10:19;13.77;99.99
68251;DHT22;55066;51.560;4.642;2023-09-19T05:12:45;13.88;99.99
68251;DHT22;55066;51.560;4.642;2023-09-19T05:15:13;13.94;99.99
68251;DHT22;55066;51.560;4.642;2023-09-19T05:17:40;13.94;99.99
68251;DHT22;55066;51.560;4.642;2023-09-19T05:20:06;13.85;99.99
68251;DHT22;55066;51.560;4.642;2023-09-19T05:22:57;13.77;99.99
68251;DHT22;55066;51.560;4.642;2023-09-19T05:25:22;13.70;99.99
68251;DHT22;55066;51.560;4.642;2023-09-19T05:27:48;13.67;99.99
68251;DHT22;55066;51.560;4.642;2023-09-19T05:30:14;13.67;99.99
68251;DHT22;55066;51.560;4.642;2023-09-19T05:32:40;13.68;99.99
68251;DHT22;55066;51.560;4.642;2023-09-19T05:35:06;13.61;99.99
68251;DHT22;55066;51.560;4.642;2023-09-19T05:37:35;13.67;99.99
68251;DHT22;55066;51.560;4.642;2023-09-19T05:40:02;13.71;99.99
68251;DHT22;55066;51.560;4.642;2023-09-19T05:42:35;13.65;99.99
68251;DHT22;55066;51.560;4.642;2023-09-19T05:45:00;13.70;99.99
68251;DHT22;55066;51.560;4.642;2023-09-19T05:47:26;13.67;99.99
68251;DHT22;55066;51.560;4.642;2023-09-19T05:49:51;13.74;99.99
68251;DHT22;55066;51.560;4.642;2023-09-19T05:52:17;13.73;99.99
68251;DHT22;55066;51.560;4.642;2023-09-19T05:54:43;13.77;99.99
68251;DHT22;55066;51.560;4.642;2023-09-19T05:57:09;13.74;99.99
68251;DHT22;55066;51.560;4.642;2023-09-19T05:59:37;13.79;99.99
68251;DHT22;55066;51.560;4.642;2023-09-19T06:02:05;13.81;99.99
68251;DHT22;55066;51.560;4.642;2023-09-19T06:04:31;13.82;99.99
68251;DHT22;55066;51.560;4.642;2023-09-19T06:06:57;13.86;99.99
68251;DHT22;55066;51.560;4.642;2023-09-19T06:09:23;13.89;99.99
68251;DHT22;55066;51.560;4.642;2023-09-19T06:11:49;14.00;99.99
68251;DHT22;55066;51.560;4.642;2023-09-19T06:14:14;14.02;99.99
68251;DHT22;55066;51.560;4.642;2023-09-19T06:16:43;14.08;99.99
68251;DHT22;55066;51.560;4.642;2023-09-19T06:19:08;14.09;99.99
68251;DHT22;55066;51.560;4.642;2023-09-19T06:21:35;14.12;99.99
68251;DHT22;55066;51.560;4.642;2023-09-19T06:24:02;14.12;99.99
68251;DHT22;55066;51.560;4.642;2023-09-19T06:26:28;14.16;99.99
68251;DHT22;55066;51.560;4.642;2023-09-19T06:28:54;14.16;99.99
68251;DHT22;55066;51.560;4.642;2023-09-19T06:31:21;14.22;99.99
68251;DHT22;55066;51.560;4.642;2023-09-19T06:33:48;14.25;99.99
68251;DHT22;55066;51.560;4.642;2023-09-19T06:36:13;14.29;99.99
68251;DHT22;55066;51.560;4.642;2023-09-19T06:38:40;14.32;99.99
68251;DHT22;55066;51.560;4.642;2023-09-19T06:41:06;14.36;99.99
68251;DHT22;55066;51.560;4.642;2023-09-19T06:43:34;14.44;99.99
68251;DHT22;55066;51.560;4.642;2023-09-19T06:46:01;14.51;99.99
68251;DHT22;55066;51.560;4.642;2023-09-19T06:48:26;14.56;99.99
68251;DHT22;55066;51.560;4.642;2023-09-19T06:50:56;14.57;99.99
68251;DHT22;55066;51.560;4.642;2023-09-19T06:53:23;14.64;99.99
68251;DHT22;55066;51.560;4.642;2023-09-19T06:55:51;14.71;99.99
68251;DHT22;55066;51.560;4.642;2023-09-19T06:58:17;14.74;99.99
68251;DHT22;55066;51.560;4.642;2023-09-19T07:00:43;14.73;99.99
68251;DHT22;55066;51.560;4.642;2023-09-19T07:03:09;14.78;99.99
68251;DHT22;55066;51.560;4.642;2023-09-19T07:05:39;14.80;99.99
68251;DHT22;55066;51.560;4.642;2023-09-19T07:08:06;14.91;99.99
68251;DHT22;55066;51.560;4.642;2023-09-19T07:10:32;15.01;99.99
68251;DHT22;55066;51.560;4.642;2023-09-19T07:12:59;15.11;99.99
68251;DHT22;55066;51.560;4.642;2023-09-19T07:15:26;15.16;99.99
68251;DHT22;55066;51.560;4.642;2023-09-19T07:17:53;15.08;99.99
68251;DHT22;55066;51.560;4.642;2023-09-19T07:20:23;15.16;99.99
68251;DHT22;55066;51.560;4.642;2023-09-19T07:22:50;15.31;99.99
68251;DHT22;55066;51.560;4.642;2023-09-19T07:25:16;15.35;99.99
68251;DHT22;55066;51.560;4.642;2023-09-19T07:27:42;15.38;99.99
68251;DHT22;55066;51.560;4.642;2023-09-19T07:30:08;15.44;99.99
68251;DHT22;55066;51.560;4.642;2023-09-19T07:32:34;15.49;99.99
68251;DHT22;55066;51.560;4.642;2023-09-19T07:35:04;15.64;99.99
68251;DHT22;55066;51.560;4.642;2023-09-19T07:37:31;15.71;99.99
68251;DHT22;55066;51.560;4.642;2023-09-19T07:40:05;15.71;99.99
68251;DHT22;55066;51.560;4.642;2023-09-19T07:42:37;15.78;99.99
68251;DHT22;55066;51.560;4.642;2023-09-19T07:45:07;15.86;99.99
68251;DHT22;55066;51.560;4.642;2023-09-19T07:47:33;16.00;99.99
68251;DHT22;55066;51.560;4.642;2023-09-19T07:49:59;15.98;99.99
68251;DHT22;55066;51.560;4.642;2023-09-19T07:52:26;16.00;99.99
68251;DHT22;55066;51.560;4.642;2023-09-19T07:54:53;16.04;99.99
68251;DHT22;55066;51.560;4.642;2023-09-19T07:57:18;16.01;99.99
68251;DHT22;55066;51.560;4.642;2023-09-19T07:59:46;16.15;99.99
68251;DHT22;55066;51.560;4.642;2023-09-19T08:02:12;16.11;99.99
68251;DHT22;55066;51.560;4.642;2023-09-19T08:04:44;16.11;99.99
68251;DHT22;55066;51.560;4.642;2023-09-19T08:07:12;16.22;99.99
68251;DHT22;55066;51.560;4.642;2023-09-19T08:09:38;16.32;99.64
68251;DHT22;55066;51.560;4.642;2023-09-19T08:12:08;16.33;99.85
68251;DHT22;55066;51.560;4.642;2023-09-19T08:14:36;16.30;99.39
68251;DHT22;55066;51.560;4.642;2023-09-19T08:17:01;16.36;99.59
68251;DHT22;55066;51.560;4.642;2023-09-19T08:19:27;16.46;99.01
68251;DHT22;55066;51.560;4.642;2023-09-19T08:21:57;16.39;99.26
68251;DHT22;55066;51.560;4.642;2023-09-19T08:24:29;16.55;99.22
68251;DHT22;55066;51.560;4.642;2023-09-19T08:26:56;16.73;98.68
68251;DHT22;55066;51.560;4.642;2023-09-19T08:29:23;16.80;99.28
68251;DHT22;55066;51.560;4.642;2023-09-19T08:31:58;16.95;98.02
68251;DHT22;55066;51.560;4.642;2023-09-19T08:34:24;17.12;97.32
68251;DHT22;55066;51.560;4.642;2023-09-19T08:36:53;17.27;97.29
68251;DHT22;55066;51.560;4.642;2023-09-19T08:39:23;17.28;96.89
68251;DHT22;55066;51.560;4.642;2023-09-19T08:41:49;17.40;96.68
68251;DHT22;55066;51.560;4.642;2023-09-19T08:44:15;17.40;96.80
68251;DHT22;55066;51.560;4.642;2023-09-19T08:46:42;17.35;96.61
68251;DHT22;55066;51.560;4.642;2023-09-19T08:49:19;17.50;96.59
68251;DHT22;55066;51.560;4.642;2023-09-19T08:51:54;17.86;95.30
68251;DHT22;55066;51.560;4.642;2023-09-19T08:54:25;17.86;95.38
68251;DHT22;55066;51.560;4.642;2023-09-19T08:56:55;17.76;95.21
68251;DHT22;55066;51.560;4.642;2023-09-19T08:59:22;17.66;95.52
68251;DHT22;55066;51.560;4.642;2023-09-19T09:01:53;17.86;94.95
68251;DHT22;55066;51.560;4.642;2023-09-19T09:04:20;18.03;94.53
68251;DHT22;55066;51.560;4.642;2023-09-19T09:06:49;17.80;95.21
68251;DHT22;55066;51.560;4.642;2023-09-19T09:09:18;17.82;95.56
68251;DHT22;55066;51.560;4.642;2023-09-19T09:11:44;17.69;95.36
68251;DHT22;55066;51.560;4.642;2023-09-19T09:14:10;17.77;95.48
68251;DHT22;55066;51.560;4.642;2023-09-19T09:16:36;17.67;95.23
68251;DHT22;55066;51.560;4.642;2023-09-19T09:19:04;17.98;95.07
68251;DHT22;55066;51.560;4.642;2023-09-19T09:21:30;18.28;94.82
68251;DHT22;55066;51.560;4.642;2023-09-19T09:24:29;18.32;94.23
68251;DHT22;55066;51.560;4.642;2023-09-19T09:26:56;18.47;94.03
68251;DHT22;55066;51.560;4.642;2023-09-19T09:29:41;18.56;93.43
68251;DHT22;55066;51.560;4.642;2023-09-19T09:32:25;18.58;93.26
68251;DHT22;55066;51.560;4.642;2023-09-19T09:34:53;18.93;92.90
68251;DHT22;55066;51.560;4.642;2023-09-19T09:37:20;19.03;92.63
68251;DHT22;55066;51.560;4.642;2023-09-19T09:39:50;18.90;92.58
68251;DHT22;55066;51.560;4.642;2023-09-19T09:42:33;19.06;93.35
68251;DHT22;55066;51.560;4.642;2023-09-19T09:45:18;19.10;92.30
68251;DHT22;55066;51.560;4.642;2023-09-19T09:48:00;19.39;91.86
68251;DHT22;55066;51.560;4.642;2023-09-19T09:50:31;19.44;90.97
68251;DHT22;55066;51.560;4.642;2023-09-19T09:53:21;19.17;91.14
68251;DHT22;55066;51.560;4.642;2023-09-19T09:56:07;19.03;91.36
68251;DHT22;55066;51.560;4.642;2023-09-19T09:58:50;19.82;90.48
68251;DHT22;55066;51.560;4.642;2023-09-19T10:01:17;20.03;89.32
68251;DHT22;55066;51.560;4.642;2023-09-19T10:03:43;19.99;89.90
68251;DHT22;55066;51.560;4.642;2023-09-19T10:06:14;20.27;88.43
68251;DHT22;55066;51.560;4.642;2023-09-19T10:09:03;20.27;87.89
68251;DHT22;55066;51.560;4.642;2023-09-19T10:12:02;20.72;87.65
68251;DHT22;55066;51.560;4.642;2023-09-19T10:14:30;20.35;87.16
68251;DHT22;55066;51.560;4.642;2023-09-19T10:16:58;20.40;88.20
68251;DHT22;55066;51.560;4.642;2023-09-19T10:19:44;20.65;87.67
68251;DHT22;55066;51.560;4.642;2023-09-19T10:22:14;20.64;86.94
68251;DHT22;55066;51.560;4.642;2023-09-19T10:24:43;20.49;86.43
68251;DHT22;55066;51.560;4.642;2023-09-19T10:27:10;20.54;86.74
68251;DHT22;55066;51.560;4.642;2023-09-19T10:29:39;20.48;86.29
68251;DHT22;55066;51.560;4.642;2023-09-19T10:32:06;20.31;87.23
68251;DHT22;55066;51.560;4.642;2023-09-19T10:34:41;20.21;86.20
68251;DHT22;55066;51.560;4.642;2023-09-19T10:37:08;20.21;86.60
68251;DHT22;55066;51.560;4.642;2023-09-19T10:39:39;20.18;85.53
68251;DHT22;55066;51.560;4.642;2023-09-19T10:42:06;20.45;85.17
68251;DHT22;55066;51.560;4.642;2023-09-19T10:44:37;20.56;85.43
68251;DHT22;55066;51.560;4.642;2023-09-19T10:47:04;20.68;84.84
68251;DHT22;55066;51.560;4.642;2023-09-19T10:49:32;20.91;84.84
68251;DHT22;55066;51.560;4.642;2023-09-19T10:51:59;21.03;84.50
68251;DHT22;55066;51.560;4.642;2023-09-19T10:54:29;20.83;84.37
68251;DHT22;55066;51.560;4.642;2023-09-19T10:56:58;20.73;84.39
68251;DHT22;55066;51.560;4.642;2023-09-19T10:59:25;21.33;84.50
68251;DHT22;55066;51.560;4.642;2023-09-19T11:01:57;20.99;84.27
68251;DHT22;55066;51.560;4.642;2023-09-19T11:04:28;20.83;84.78
68251;DHT22;55066;51.560;4.642;2023-09-19T11:07:05;21.13;84.37
68251;DHT22;55066;51.560;4.642;2023-09-19T11:09:54;21.46;84.17
68251;DHT22;55066;51.560;4.642;2023-09-19T11:14:55;21.74;82.93
68251;DHT22;55066;51.560;4.642;2023-09-19T11:30:44;21.82;83.29
68251;DHT22;55066;51.560;4.642;2023-09-19T11:46:33;20.54;85.90
68251;DHT22;55066;51.560;4.642;2023-09-19T11:49:06;20.65;85.68
68251;DHT22;55066;51.560;4.642;2023-09-19T11:51:42;20.82;85.32
68251;DHT22;55066;51.560;4.642;2023-09-19T11:54:13;20.69;85.99
68251;DHT22;55066;51.560;4.642;2023-09-19T11:56:43;20.31;86.36
68251;DHT22;55066;51.560;4.642;2023-09-19T11:59:10;20.33;86.80
68251;DHT22;55066;51.560;4.642;2023-09-19T12:01:37;20.20;86.55
68251;DHT22;55066;51.560;4.642;2023-09-19T12:04:08;20.54;86.19
68251;DHT22;55066;51.560;4.642;2023-09-19T12:06:35;20.49;85.71
68251;DHT22;55066;51.560;4.642;2023-09-19T12:09:04;20.44;86.98
68251;DHT22;55066;51.560;4.642;2023-09-19T12:11:41;20.52;87.34
68251;DHT22;55066;51.560;4.642;2023-09-19T12:14:09;20.47;87.70
68251;DHT22;55066;51.560;4.642;2023-09-19T12:16:35;20.26;87.21
68251;DHT22;55066;51.560;4.642;2023-09-19T12:19:34;20.21;87.62
68251;DHT22;55066;51.560;4.642;2023-09-19T12:22:03;20.40;87.07
68251;DHT22;55066;51.560;4.642;2023-09-19T12:24:32;20.54;86.63
68251;DHT22;55066;51.560;4.642;2023-09-19T12:27:03;20.48;86.85
68251;DHT22;55066;51.560;4.642;2023-09-19T12:29:31;20.47;87.07
68251;DHT22;55066;51.560;4.642;2023-09-19T12:31:58;20.41;86.40
68251;DHT22;55066;51.560;4.642;2023-09-19T12:34:28;20.17;86.25
68251;DHT22;55066;51.560;4.642;2023-09-19T12:37:13;20.27;86.48
68251;DHT22;55066;51.560;4.642;2023-09-19T12:39:53;20.35;86.36
68251;DHT22;55066;51.560;4.642;2023-09-19T12:42:26;20.45;86.10
68251;DHT22;55066;51.560;4.642;2023-09-19T12:44:57;20.67;86.00
68251;DHT22;55066;51.560;4.642;2023-09-19T12:47:27;20.59;85.85
68251;DHT22;55066;51.560;4.642;2023-09-19T12:50:13;20.75;85.60
68251;DHT22;55066;51.560;4.642;2023-09-19T12:52:49;20.78;85.89
68251;DHT22;55066;51.560;4.642;2023-09-19T12:55:28;20.86;85.26
68251;DHT22;55066;51.560;4.642;2023-09-19T13:00:38;21.03;84.72
68251;DHT22;55066;51.560;4.642;2023-09-19T13:05:54;20.95;86.51
68251;DHT22;55066;51.560;4.642;2023-09-19T13:08:34;20.48;86.01
68251;DHT22;55066;51.560;4.642;2023-09-19T13:11:14;20.72;85.90
68251;DHT22;55066;51.560;4.642;2023-09-19T13:13:42;21.24;84.84
68251;DHT22;55066;51.560;4.642;2023-09-19T13:16:10;21.50;84.26
68251;DHT22;55066;51.560;4.642;2023-09-19T13:18:47;21.73;84.24
68251;DHT22;55066;51.560;4.642;2023-09-19T13:21:13;21.51;84.17
68251;DHT22;55066;51.560;4.642;2023-09-19T13:23:53;21.40;84.03
68251;DHT22;55066;51.560;4.642;2023-09-19T13:26:20;21.44;83.98
68251;DHT22;55066;51.560;4.642;2023-09-19T13:28:45;21.53;84.50
68251;DHT22;55066;51.560;4.642;2023-09-19T13:31:14;21.24;84.58
68251;DHT22;55066;51.560;4.642;2023-09-19T13:33:44;21.03;85.35
68251;DHT22;55066;51.560;4.642;2023-09-19T13:36:10;20.99;85.41
68251;DHT22;55066;51.560;4.642;2023-09-19T13:38:37;21.04;84.49
68251;DHT22;55066;51.560;4.642;2023-09-19T13:41:03;21.14;84.91
68251;DHT22;55066;51.560;4.642;2023-09-19T13:43:28;21.11;84.80
68251;DHT22;55066;51.560;4.642;2023-09-19T13:45:54;20.99;85.27
68251;DHT22;55066;51.560;4.642;2023-09-19T13:48:20;20.88;85.57
68251;DHT22;55066;51.560;4.642;2023-09-19T13:50:48;20.69;85.87
68251;DHT22;55066;51.560;4.642;2023-09-19T13:53:14;20.48;85.56
68251;DHT22;55066;51.560;4.642;2023-09-19T13:55:39;20.30;86.13
68251;DHT22;55066;51.560;4.642;2023-09-19T13:58:05;20.20;86.41
68251;DHT22;55066;51.560;4.642;2023-09-19T14:00:32;20.31;86.38
68251;DHT22;55066;51.560;4.642;2023-09-19T14:03:03;20.47;86.65
68251;DHT22;55066;51.560;4.642;2023-09-19T14:05:29;20.35;86.18
68251;DHT22;55066;51.560;4.642;2023-09-19T14:07:56;20.67;85.53
68251;DHT22;55066;51.560;4.642;2023-09-19T14:10:22;21.06;84.61
68251;DHT22;55066;51.560;4.642;2023-09-19T14:12:48;21.26;83.94
68251;DHT22;55066;51.560;4.642;2023-09-19T14:15:14;21.36;83.44
68251;DHT22;55066;51.560;4.642;2023-09-19T14:17:39;21.23;83.71
68251;DHT22;55066;51.560;4.642;2023-09-19T14:20:08;20.86;84.74
68251;DHT22;55066;51.560;4.642;2023-09-19T14:22:36;20.76;85.54
68251;DHT22;55066;51.560;4.642;2023-09-19T14:25:02;20.62;85.22
68251;DHT22;55066;51.560;4.642;2023-09-19T14:27:29;20.44;85.65
68251;DHT22;55066;51.560;4.642;2023-09-19T14:29:55;20.38;86.17
68251;DHT22;55066;51.560;4.642;2023-09-19T14:32:22;20.31;86.55
68251;DHT22;55066;51.560;4.642;2023-09-19T14:34:47;20.17;87.06
68251;DHT22;55066;51.560;4.642;2023-09-19T14:37:13;20.20;87.15
68251;DHT22;55066;51.560;4.642;2023-09-19T14:39:40;19.93;87.87
68251;DHT22;55066;51.560;4.642;2023-09-19T14:42:05;20.03;87.19
68251;DHT22;55066;51.560;4.642;2023-09-19T14:44:31;19.99;87.33
68251;DHT22;55066;51.560;4.642;2023-09-19T14:46:56;19.94;87.07
68251;DHT22;55066;51.560;4.642;2023-09-19T14:49:22;19.93;87.19
68251;DHT22;55066;51.560;4.642;2023-09-19T14:51:47;20.26;86.52
68251;DHT22;55066;51.560;4.642;2023-09-19T14:54:13;20.75;85.67
68251;DHT22;55066;51.560;4.642;2023-09-19T14:56:42;20.76;85.51
68251;DHT22;55066;51.560;4.642;2023-09-19T14:59:08;20.64;85.83
68251;DHT22;55066;51.560;4.642;2023-09-19T15:01:36;20.69;85.98
68251;DHT22;55066;51.560;4.642;2023-09-19T15:04:02;20.69;86.17
68251;DHT22;55066;51.560;4.642;2023-09-19T15:06:28;20.40;86.24
68251;DHT22;55066;51.560;4.642;2023-09-19T15:08:53;20.20;86.80
68251;DHT22;55066;51.560;4.642;2023-09-19T15:11:19;20.14;87.27
68251;DHT22;55066;51.560;4.642;2023-09-19T15:13:47;19.94;87.62
68251;DHT22;55066;51.560;4.642;2023-09-19T15:16:13;19.90;87.56
68251;DHT22;55066;51.560;4.642;2023-09-19T15:18:41;19.79;87.88
68251;DHT22;55066;51.560;4.642;2023-09-19T15:21:11;19.79;88.17
68251;DHT22;55066;51.560;4.642;2023-09-19T15:23:38;19.79;87.98
68251;DHT22;55066;51.560;4.642;2023-09-19T15:26:04;19.89;87.70
68251;DHT22;55066;51.560;4.642;2023-09-19T15:28:30;19.89;87.79
68251;DHT22;55066;51.560;4.642;2023-09-19T15:31:01;19.99;87.78
68251;DHT22;55066;51.560;4.642;2023-09-19T15:33:27;19.96;88.02
68251;DHT22;55066;51.560;4.642;2023-09-19T15:36:09;19.93;87.50
68251;DHT22;55066;51.560;4.642;2023-09-19T15:39:01;19.80;87.93
68251;DHT22;55066;51.560;4.642;2023-09-19T15:41:31;19.76;88.05
68251;DHT22;55066;51.560;4.642;2023-09-19T15:43:59;19.80;88.11
68251;DHT22;55066;51.560;4.642;2023-09-19T15:46:26;19.75;88.15
68251;DHT22;55066;51.560;4.642;2023-09-19T15:48:53;19.69;88.80
68251;DHT22;55066;51.560;4.642;2023-09-19T15:51:18;19.59;88.98
68251;DHT22;55066;51.560;4.642;2023-09-19T15:53:48;19.58;89.01
68251;DHT22;55066;51.560;4.642;2023-09-19T15:56:18;19.50;88.96
68251;DHT22;55066;51.560;4.642;2023-09-19T15:58:44;19.41;89.21
68251;DHT22;55066;51.560;4.642;2023-09-19T16:01:11;19.36;89.59
68251;DHT22;55066;51.560;4.642;2023-09-19T16:03:42;19.32;89.82
68251;DHT22;55066;51.560;4.642;2023-09-19T16:06:19;19.35;89.71
68251;DHT22;55066;51.560;4.642;2023-09-19T16:08:47;19.36;89.80
68251;DHT22;55066;51.560;4.642;2023-09-19T16:11:14;19.41;89.37
68251;DHT22;55066;51.560;4.642;2023-09-19T16:13:41;19.32;89.52
68251;DHT22;55066;51.560;4.642;2023-09-19T16:16:08;19.27;90.01
68251;DHT22;55066;51.560;4.642;2023-09-19T16:18:51;19.30;90.05
68251;DHT22;55066;51.560;4.642;2023-09-19T16:21:17;19.23;89.99
68251;DHT22;55066;51.560;4.642;2023-09-19T16:23:51;19.23;89.73
68251;DHT22;55066;51.560;4.642;2023-09-19T16:26:18;19.23;89.60
68251;DHT22;55066;51.560;4.642;2023-09-19T16:28:46;19.21;89.83
68251;DHT22;55066;51.560;4.642;2023-09-19T16:31:11;19.24;89.47